Glenwood City, Wisconsin
Current Conditions -  °F | °C
As of 10:55 PM on Friday 19 Dec 2014 (Local Time) from KLUM Reporting Station
Overcast Overcast  
Wind Chill: 22°   Ceiling: 1700
Heat Index: 28°   Visibility: 10mi
Dew Point: 23°   Wind: 6mph
Humidity: 81%   Direction: 120°ESE
Pressure: 30.21"   Gusts: NA
Location:  45.06°N, 92.17°W
Report Text: KLUM 200455Z AUTO 12005KT 10SM OVC017 M02/M05 A3021 RMK AO2 T10201048
Loading
Personal Weather Stations






























Interactive Weather Map New forecast layout! Learn more

10-Day Weather Forecast

Advertisements
Track Severe Weather on mobile